Jill P. Harvey — WDC2466 — position and weather

sailwx.info

Track history (hours):
 
Tides and Currents Weather Stations Pressure Air Temp Water Temp Dewpoint Dewpoint Depression Visibility Wind Speed Wind Dir Waves Ship Positions

Jill P. Harvey

Owner: Florida Marine, LLC, Mandeville, LA. More information available from US FCC via Universal Licensing System and Coast Guard Vessel Documentation Center.

Last reported at 2018-Jan-06 19:07 UTC. Time now 2018-Feb-22 16:46 UTC.
Position N 29°50' W 091°57'.
Warning: this ship's position is 46 days out of date.

Length 35 m; draft 3.2 m.

Type: Towing. MMSI: 366993550.

Date/timePositionNaut miles runAvg speedWind from/ knotsBaromVisibWave heightAir tempDewpointWater temp
2018-Jan-06 19:07N 29°50' W 091°57'1 5.4
2018-Jan-06 19:00N 29°50' W 091°58'3 5.5
2018-Jan-06 18:31N 29°50' W 092°01'3 5.7
2018-Jan-06 18:00N 29°49' W 092°04'3 5.6
2018-Jan-06 17:30N 29°48' W 092°07'3 5.5
2018-Jan-06 17:00N 29°47' W 092°10'2 4.6
2018-Jan-06 16:31N 29°47' W 092°12'1 1.9
2018-Jan-06 16:01N 29°48' W 092°13'1 2.4
2018-Jan-06 15:30N 29°48' W 092°15'3 5.2
2018-Jan-06 15:01N 29°49' W 092°17'4 4.8
2018-Jan-06 14:07N 29°51' W 092°22'6 4.9
2018-Jan-06 12:58N 29°54' W 092°28'33 5.1
2018-Jan-06 06:22N 29°56' W 093°06'2 4.6
2018-Jan-06 06:00N 29°56' W 093°08'2 4.2
2018-Jan-06 05:31N 29°57' W 093°10'3 5.0
2018-Jan-06 05:00N 29°59' W 093°12'2 4.8
2018-Jan-06 04:30N 30°01' W 093°14'2 4.6
2018-Jan-06 04:00N 30°02' W 093°16'2 4.5
2018-Jan-06 03:31N 30°04' W 093°17'2 3.2
2018-Jan-06 03:00N 30°06' W 093°18'0 0.9
2018-Jan-06 02:30N 30°06' W 093°18'0 0.5
2018-Jan-06 02:00N 30°06' W 093°18'2 4.7
2018-Jan-06 01:31N 30°04' W 093°20'2 3.6
2018-Jan-06 01:01N 30°04' W 093°22'3 5.0
2018-Jan-06 00:31N 30°04' W 093°25'3 5.3
2018-Jan-06 00:01N 30°04' W 093°28'3 5.5
2018-Jan-05 23:31N 30°04' W 093°31'  
2017-Dec-31 13:54N 30°04' W 093°41'3 6.5
2017-Dec-31 13:28N 30°04' W 093°38'3 5.7
2017-Dec-31 12:58N 30°04' W 093°34'3 5.9
2017-Dec-31 12:30N 30°04' W 093°31'3 5.8
2017-Dec-31 12:00N 30°04' W 093°28'3 5.2
2017-Dec-31 11:31N 30°04' W 093°25'3 5.2
2017-Dec-31 11:00N 30°04' W 093°22'1 3.0
2017-Dec-31 10:31N 30°04' W 093°20'1 2.9
2017-Dec-31 10:01N 30°06' W 093°19'1 2.1
2017-Dec-31 09:30N 30°06' W 093°18'1 1.7
2017-Dec-31 09:00N 30°05' W 093°18'2 3.9
2017-Dec-31 08:30N 30°04' W 093°16'0 0.1
2017-Dec-31 08:00N 30°04' W 093°16'0 0.0
2017-Dec-31 07:30N 30°04' W 093°16'0 0.3
2017-Dec-31 07:01N 30°04' W 093°16'0 0.6
2017-Dec-31 06:30N 30°04' W 093°16'2 4.3
2017-Dec-31 06:00N 30°02' W 093°15'2 4.9
2017-Dec-31 05:31N 29°60' W 093°13'3 5.8
2017-Dec-31 05:00N 29°58' W 093°11'4 5.2
2017-Dec-31 04:20N 29°56' W 093°07'38 5.6
2017-Dec-30 21:32N 29°53' W 092°23'2 5.4
2017-Dec-30 21:06N 29°51' W 092°22'0 4.8
2017-Dec-30 21:00N 29°51' W 092°21'3 5.5
2017-Dec-30 20:31N 29°50' W 092°18'3 5.3
2017-Dec-30 20:00N 29°48' W 092°16'3 5.7
2017-Dec-30 19:31N 29°47' W 092°13'2 4.8
2017-Dec-30 19:00N 29°47' W 092°10'2 3.8
2017-Dec-30 18:30N 29°47' W 092°08'3 5.4
2017-Dec-30 18:00N 29°48' W 092°05'3 5.2
2017-Dec-30 17:30N 29°49' W 092°02'11 5.0
2017-Dec-30 15:16N 29°49' W 091°50'47 4.9
2017-Dec-30 05:47N 29°36' W 090°58'2 5.7
2017-Dec-30 05:30N 29°34' W 090°57'3 6.2
2017-Dec-30 05:00N 29°33' W 090°54'3 6.1
2017-Dec-30 04:30N 29°32' W 090°50'3 6.5
2017-Dec-30 04:01N 29°32' W 090°47'3 5.3
2017-Dec-30 03:30N 29°34' W 090°44'2 4.1
2017-Dec-30 03:00N 29°35' W 090°43'2 3.5
2017-Dec-30 02:30N 29°37' W 090°41'3 5.2
2017-Dec-30 02:00N 29°35' W 090°39'3 5.5
2017-Dec-30 01:30N 29°35' W 090°36'3 5.8
2017-Dec-30 01:00N 29°34' W 090°33'  
Track history (hours):
 
Tides and Currents Weather Stations Pressure Air Temp Water Temp Dewpoint Dewpoint Depression Visibility Wind Speed Wind Dir Waves Ship Positions

Jill P. Harvey

Owner: Florida Marine, LLC, Mandeville, LA. More information available from US FCC via Universal Licensing System and Coast Guard Vessel Documentation Center.

Last reported at 2018-Jan-06 19:07 UTC. Time now 2018-Feb-22 16:46 UTC.
Position N 29°50' W 091°57'.
Warning: this ship's position is 46 days out of date.

Length 35 m; draft 3.2 m.

Type: Towing. MMSI: 366993550.

Date/timePositionNaut miles runAvg speedWind from/ knotsBaromVisibWave heightAir tempDewpointWater temp
2018-Jan-06 19:07N 29°50' W 091°57'1 5.4
2018-Jan-06 19:00N 29°50' W 091°58'3 5.5
2018-Jan-06 18:31N 29°50' W 092°01'3 5.7
2018-Jan-06 18:00N 29°49' W 092°04'3 5.6
2018-Jan-06 17:30N 29°48' W 092°07'3 5.5
2018-Jan-06 17:00N 29°47' W 092°10'2 4.6
2018-Jan-06 16:31N 29°47' W 092°12'1 1.9
2018-Jan-06 16:01N 29°48' W 092°13'1 2.4
2018-Jan-06 15:30N 29°48' W 092°15'3 5.2
2018-Jan-06 15:01N 29°49' W 092°17'4 4.8
2018-Jan-06 14:07N 29°51' W 092°22'6 4.9
2018-Jan-06 12:58N 29°54' W 092°28'33 5.1
2018-Jan-06 06:22N 29°56' W 093°06'2 4.6
2018-Jan-06 06:00N 29°56' W 093°08'2 4.2
2018-Jan-06 05:31N 29°57' W 093°10'3 5.0
2018-Jan-06 05:00N 29°59' W 093°12'2 4.8
2018-Jan-06 04:30N 30°01' W 093°14'2 4.6
2018-Jan-06 04:00N 30°02' W 093°16'2 4.5
2018-Jan-06 03:31N 30°04' W 093°17'2 3.2
2018-Jan-06 03:00N 30°06' W 093°18'0 0.9
2018-Jan-06 02:30N 30°06' W 093°18'0 0.5
2018-Jan-06 02:00N 30°06' W 093°18'2 4.7
2018-Jan-06 01:31N 30°04' W 093°20'2 3.6
2018-Jan-06 01:01N 30°04' W 093°22'3 5.0
2018-Jan-06 00:31N 30°04' W 093°25'3 5.3
2018-Jan-06 00:01N 30°04' W 093°28'3 5.5
2018-Jan-05 23:31N 30°04' W 093°31'  
2017-Dec-31 13:54N 30°04' W 093°41'3 6.5
2017-Dec-31 13:28N 30°04' W 093°38'3 5.7
2017-Dec-31 12:58N 30°04' W 093°34'3 5.9
2017-Dec-31 12:30N 30°04' W 093°31'3 5.8
2017-Dec-31 12:00N 30°04' W 093°28'3 5.2
2017-Dec-31 11:31N 30°04' W 093°25'3 5.2
2017-Dec-31 11:00N 30°04' W 093°22'1 3.0
2017-Dec-31 10:31N 30°04' W 093°20'1 2.9
2017-Dec-31 10:01N 30°06' W 093°19'1 2.1
2017-Dec-31 09:30N 30°06' W 093°18'1 1.7
2017-Dec-31 09:00N 30°05' W 093°18'2 3.9
2017-Dec-31 08:30N 30°04' W 093°16'0 0.1
2017-Dec-31 08:00N 30°04' W 093°16'0 0.0
2017-Dec-31 07:30N 30°04' W 093°16'0 0.3
2017-Dec-31 07:01N 30°04' W 093°16'0 0.6
2017-Dec-31 06:30N 30°04' W 093°16'2 4.3
2017-Dec-31 06:00N 30°02' W 093°15'2 4.9
2017-Dec-31 05:31N 29°60' W 093°13'3 5.8
2017-Dec-31 05:00N 29°58' W 093°11'4 5.2
2017-Dec-31 04:20N 29°56' W 093°07'38 5.6
2017-Dec-30 21:32N 29°53' W 092°23'2 5.4
2017-Dec-30 21:06N 29°51' W 092°22'0 4.8
2017-Dec-30 21:00N 29°51' W 092°21'3 5.5
2017-Dec-30 20:31N 29°50' W 092°18'3 5.3
2017-Dec-30 20:00N 29°48' W 092°16'3 5.7
2017-Dec-30 19:31N 29°47' W 092°13'2 4.8
2017-Dec-30 19:00N 29°47' W 092°10'2 3.8
2017-Dec-30 18:30N 29°47' W 092°08'3 5.4
2017-Dec-30 18:00N 29°48' W 092°05'3 5.2
2017-Dec-30 17:30N 29°49' W 092°02'11 5.0
2017-Dec-30 15:16N 29°49' W 091°50'47 4.9
2017-Dec-30 05:47N 29°36' W 090°58'2 5.7
2017-Dec-30 05:30N 29°34' W 090°57'3 6.2
2017-Dec-30 05:00N 29°33' W 090°54'3 6.1
2017-Dec-30 04:30N 29°32' W 090°50'3 6.5
2017-Dec-30 04:01N 29°32' W 090°47'3 5.3
2017-Dec-30 03:30N 29°34' W 090°44'2 4.1
2017-Dec-30 03:00N 29°35' W 090°43'2 3.5
2017-Dec-30 02:30N 29°37' W 090°41'3 5.2
2017-Dec-30 02:00N 29°35' W 090°39'3 5.5
2017-Dec-30 01:30N 29°35' W 090°36'3 5.8
2017-Dec-30 01:00N 29°34' W 090°33'  

Dump ship's entire track history